Terminal Aerodrome Forecast
Issued by NWS

Home | Current Version | Previous Version | Text Only | Print | Product List | Glossary On
Versions: 1 2 3 4 5 6 7 8 9 10 11 12 13
000
FTUS41 KBTV 010531
TAFMPV
TAF
KMPV 010531Z 0106/0206 00000KT P6SM BKN250
     FM010800 00000KT P6SM OVC070
     FM011300 VRB03KT P6SM VCSH OVC045
     FM011500 15005KT 4SM -RA BR BKN015 OVC035
     FM012000 16009KT 3SM -RA BR OVC015
     FM020000 17010KT 4SM -RA BR SCT006 OVC015=

USA.gov is the U.S. government's official web portal to all federal, state and local government web resources and services.